Seaspan Saigon — VRBT7 — position and weather

sailwx.info

Track history (hours):
 
Tides and Currents Weather Stations Pressure Air Temp Water Temp Dewpoint Dewpoint Depression Visibility Wind Speed Wind Dir Waves Ship Positions

Seaspan Saigon

Last reported at 2018-Apr-23 23:24 UTC. Time now 2018-Apr-24 22:56 UTC.
Position N 36°02' W 005°03'.

Length 260 m; draft 10.4 m.

Type: Ship (hazmat cat A). MMSI: 477106800.

Date/timePositionNaut miles runAvg speedWind from/ knotsBaromVisibWave heightAir tempDewpointWater temp
2018-Apr-23 23:24N 36°02' W 005°03'5 1.2
2018-Apr-23 19:11N 35°57' W 005°02'6 0.2
2018-Apr-22 05:09N 35°60' W 005°09'2 8.9
2018-Apr-22 04:53N 36°01' W 005°11'512.8
2018-Apr-22 04:30N 36°03' W 005°17'2 4.1
2018-Apr-22 04:00N 36°04' W 005°19'2 3.3
2018-Apr-22 03:30N 36°04' W 005°17'2 3.8
2018-Apr-22 03:00N 36°04' W 005°15'2 5.0
2018-Apr-22 02:30N 36°02' W 005°13'5 8.4
2018-Apr-22 01:58N 36°00' W 005°07'0 0.5
2018-Apr-22 01:12N 36°00' W 005°08'1 5.9
2018-Apr-22 00:58N 35°60' W 005°09'714.8
2018-Apr-22 00:30N 36°01' W 005°18'612.5
2018-Apr-22 00:00N 36°05' W 005°23'3 5.8
2018-Apr-21 23:30N 36°08' W 005°25'0 0.0
2018-Apr-21 22:58N 36°08' W 005°25'0 0.0
2018-Apr-21 22:28N 36°08' W 005°25'0 0.0
2018-Apr-21 21:58N 36°08' W 005°25'0 0.0
2018-Apr-21 21:28N 36°08' W 005°25'0 0.0
2018-Apr-21 20:58N 36°08' W 005°25'0 0.0
2018-Apr-21 20:28N 36°08' W 005°25'0 0.0
2018-Apr-21 19:58N 36°08' W 005°25'0 0.0
2018-Apr-21 19:22N 36°08' W 005°25'0 0.0
2018-Apr-21 18:58N 36°08' W 005°25'0 0.0
2018-Apr-21 18:28N 36°08' W 005°25'0 0.1
2018-Apr-21 17:58N 36°08' W 005°25'0 0.0
2018-Apr-21 17:28N 36°08' W 005°25'0 0.0
2018-Apr-21 16:58N 36°08' W 005°25'0 0.0
2018-Apr-21 16:28N 36°08' W 005°25'0 0.0
2018-Apr-21 15:52N 36°08' W 005°25'0 0.0
2018-Apr-21 15:28N 36°08' W 005°25'0 0.0
2018-Apr-21 14:58N 36°08' W 005°25'0 0.0
2018-Apr-21 14:28N 36°08' W 005°25'0 0.0
2018-Apr-21 13:58N 36°08' W 005°25'0 0.0
2018-Apr-21 13:28N 36°08' W 005°25'0 0.0
2018-Apr-21 12:58N 36°08' W 005°25'0 0.0
2018-Apr-21 12:25N 36°08' W 005°25'0 0.0
2018-Apr-21 11:58N 36°08' W 005°25'0 0.0
2018-Apr-21 11:28N 36°08' W 005°25'0 0.0
2018-Apr-21 10:58N 36°08' W 005°25'0 0.0
2018-Apr-21 10:28N 36°08' W 005°25'1 2.3
2018-Apr-21 10:00N 36°09' W 005°25'2 3.3
2018-Apr-21 09:30N 36°07' W 005°24'1 1.4
2018-Apr-21 09:00N 36°08' W 005°24'4 7.6
2018-Apr-21 08:31N 36°04' W 005°23'714.0
2018-Apr-21 08:01N 35°58' W 005°28'56116.3
2018-Apr-19 21:38N 29°04' W 012°56'516.8
2018-Apr-19 21:21N 28°60' W 012°59'616.7
2018-Apr-19 21:01N 28°55' W 013°03'1016.8
2018-Apr-19 20:26N 28°47' W 013°09'716.5
2018-Apr-19 20:00N 28°41' W 013°13'816.3
2018-Apr-19 19:30N 28°34' W 013°19'5016.9
2018-Apr-19 16:34N 27°53' W 013°50'117.3
2018-Apr-19 16:30N 27°52' W 013°51'3416.9
2018-Apr-19 14:30N 27°23' W 014°12'917.4
2018-Apr-19 14:00N 27°16' W 014°17'817.1
2018-Apr-19 13:31N 27°09' W 014°22'917.0
2018-Apr-19 13:00N 27°02' W 014°27'817.1
2018-Apr-19 12:31N 26°55' W 014°33'916.6
2018-Apr-19 11:59N 26°48' W 014°38'80916.3
2018-Apr-17 10:21N 13°36' W 017°37'17716.5
2018-Apr-16 23:39N 10°41' W 017°11'2416.8
2018-Apr-16 22:14N 10°24' W 016°53'816.9
2018-Apr-16 21:44N 10°19' W 016°47'417.0
2018-Apr-16 21:31N 10°16' W 016°44'1116.9
2018-Apr-16 20:51N 10°08' W 016°37'616.9
2018-Apr-16 20:30N 10°04' W 016°32'917.1
2018-Apr-16 19:59N 09°58' W 016°26'1117.2
2018-Apr-16 19:22N 09°50' W 016°18'617.0
2018-Apr-16 19:00N 09°46' W 016°14'816.9
2018-Apr-16 18:31N 09°40' W 016°08'917.2
2018-Apr-16 18:00N 09°34' W 016°01'917.2
2018-Apr-16 17:31N 09°28' W 015°55'917.3
2018-Apr-16 17:01N 09°22' W 015°49'917.2
2018-Apr-16 16:30N 09°16' W 015°43'817.1
2018-Apr-16 16:00N 09°10' W 015°37'2417.1
2018-Apr-16 14:36N 08°53' W 015°19'217.2
2018-Apr-16 14:30N 08°52' W 015°18'  
2018-Apr-14 06:23N 05°10' W 000°36'615.4
2018-Apr-14 06:01N 05°12' W 000°31'815.4
2018-Apr-14 05:30N 05°16' W 000°24'815.6
2018-Apr-14 05:01N 05°19' W 000°17'815.6
2018-Apr-14 04:31N 05°23' W 000°10'815.5
2018-Apr-14 04:00N 05°28' W 000°03'715.1
2018-Apr-14 03:30N 05°32' E 000°03'5 9.4
2018-Apr-14 03:00N 05°37' E 000°03'3 5.7
2018-Apr-14 02:30N 05°38' E 000°01'0 0.3
2018-Apr-14 01:58N 05°38' E 000°01'0 0.0
2018-Apr-14 01:28N 05°38' E 000°01'0 0.0
2018-Apr-14 00:58N 05°38' E 000°01'0 0.0
2018-Apr-14 00:28N 05°38' E 000°01'0 0.0
2018-Apr-13 23:58N 05°38' E 000°01'0 0.0
2018-Apr-13 23:28N 05°38' E 000°01'  
Track history (hours):
 
Tides and Currents Weather Stations Pressure Air Temp Water Temp Dewpoint Dewpoint Depression Visibility Wind Speed Wind Dir Waves Ship Positions

Seaspan Saigon

Last reported at 2018-Apr-23 23:24 UTC. Time now 2018-Apr-24 22:56 UTC.
Position N 36°02' W 005°03'.

Length 260 m; draft 10.4 m.

Type: Ship (hazmat cat A). MMSI: 477106800.

Date/timePositionNaut miles runAvg speedWind from/ knotsBaromVisibWave heightAir tempDewpointWater temp
2018-Apr-23 23:24N 36°02' W 005°03'5 1.2
2018-Apr-23 19:11N 35°57' W 005°02'6 0.2
2018-Apr-22 05:09N 35°60' W 005°09'2 8.9
2018-Apr-22 04:53N 36°01' W 005°11'512.8
2018-Apr-22 04:30N 36°03' W 005°17'2 4.1
2018-Apr-22 04:00N 36°04' W 005°19'2 3.3
2018-Apr-22 03:30N 36°04' W 005°17'2 3.8
2018-Apr-22 03:00N 36°04' W 005°15'2 5.0
2018-Apr-22 02:30N 36°02' W 005°13'5 8.4
2018-Apr-22 01:58N 36°00' W 005°07'0 0.5
2018-Apr-22 01:12N 36°00' W 005°08'1 5.9
2018-Apr-22 00:58N 35°60' W 005°09'714.8
2018-Apr-22 00:30N 36°01' W 005°18'612.5
2018-Apr-22 00:00N 36°05' W 005°23'3 5.8
2018-Apr-21 23:30N 36°08' W 005°25'0 0.0
2018-Apr-21 22:58N 36°08' W 005°25'0 0.0
2018-Apr-21 22:28N 36°08' W 005°25'0 0.0
2018-Apr-21 21:58N 36°08' W 005°25'0 0.0
2018-Apr-21 21:28N 36°08' W 005°25'0 0.0
2018-Apr-21 20:58N 36°08' W 005°25'0 0.0
2018-Apr-21 20:28N 36°08' W 005°25'0 0.0
2018-Apr-21 19:58N 36°08' W 005°25'0 0.0
2018-Apr-21 19:22N 36°08' W 005°25'0 0.0
2018-Apr-21 18:58N 36°08' W 005°25'0 0.0
2018-Apr-21 18:28N 36°08' W 005°25'0 0.1
2018-Apr-21 17:58N 36°08' W 005°25'0 0.0
2018-Apr-21 17:28N 36°08' W 005°25'0 0.0
2018-Apr-21 16:58N 36°08' W 005°25'0 0.0
2018-Apr-21 16:28N 36°08' W 005°25'0 0.0
2018-Apr-21 15:52N 36°08' W 005°25'0 0.0
2018-Apr-21 15:28N 36°08' W 005°25'0 0.0
2018-Apr-21 14:58N 36°08' W 005°25'0 0.0
2018-Apr-21 14:28N 36°08' W 005°25'0 0.0
2018-Apr-21 13:58N 36°08' W 005°25'0 0.0
2018-Apr-21 13:28N 36°08' W 005°25'0 0.0
2018-Apr-21 12:58N 36°08' W 005°25'0 0.0
2018-Apr-21 12:25N 36°08' W 005°25'0 0.0
2018-Apr-21 11:58N 36°08' W 005°25'0 0.0
2018-Apr-21 11:28N 36°08' W 005°25'0 0.0
2018-Apr-21 10:58N 36°08' W 005°25'0 0.0
2018-Apr-21 10:28N 36°08' W 005°25'1 2.3
2018-Apr-21 10:00N 36°09' W 005°25'2 3.3
2018-Apr-21 09:30N 36°07' W 005°24'1 1.4
2018-Apr-21 09:00N 36°08' W 005°24'4 7.6
2018-Apr-21 08:31N 36°04' W 005°23'714.0
2018-Apr-21 08:01N 35°58' W 005°28'56116.3
2018-Apr-19 21:38N 29°04' W 012°56'516.8
2018-Apr-19 21:21N 28°60' W 012°59'616.7
2018-Apr-19 21:01N 28°55' W 013°03'1016.8
2018-Apr-19 20:26N 28°47' W 013°09'716.5
2018-Apr-19 20:00N 28°41' W 013°13'816.3
2018-Apr-19 19:30N 28°34' W 013°19'5016.9
2018-Apr-19 16:34N 27°53' W 013°50'117.3
2018-Apr-19 16:30N 27°52' W 013°51'3416.9
2018-Apr-19 14:30N 27°23' W 014°12'917.4
2018-Apr-19 14:00N 27°16' W 014°17'817.1
2018-Apr-19 13:31N 27°09' W 014°22'917.0
2018-Apr-19 13:00N 27°02' W 014°27'817.1
2018-Apr-19 12:31N 26°55' W 014°33'916.6
2018-Apr-19 11:59N 26°48' W 014°38'80916.3
2018-Apr-17 10:21N 13°36' W 017°37'17716.5
2018-Apr-16 23:39N 10°41' W 017°11'2416.8
2018-Apr-16 22:14N 10°24' W 016°53'816.9
2018-Apr-16 21:44N 10°19' W 016°47'417.0
2018-Apr-16 21:31N 10°16' W 016°44'1116.9
2018-Apr-16 20:51N 10°08' W 016°37'616.9
2018-Apr-16 20:30N 10°04' W 016°32'917.1
2018-Apr-16 19:59N 09°58' W 016°26'1117.2
2018-Apr-16 19:22N 09°50' W 016°18'617.0
2018-Apr-16 19:00N 09°46' W 016°14'816.9
2018-Apr-16 18:31N 09°40' W 016°08'917.2
2018-Apr-16 18:00N 09°34' W 016°01'917.2
2018-Apr-16 17:31N 09°28' W 015°55'917.3
2018-Apr-16 17:01N 09°22' W 015°49'917.2
2018-Apr-16 16:30N 09°16' W 015°43'817.1
2018-Apr-16 16:00N 09°10' W 015°37'2417.1
2018-Apr-16 14:36N 08°53' W 015°19'217.2
2018-Apr-16 14:30N 08°52' W 015°18'  
2018-Apr-14 06:23N 05°10' W 000°36'615.4
2018-Apr-14 06:01N 05°12' W 000°31'815.4
2018-Apr-14 05:30N 05°16' W 000°24'815.6
2018-Apr-14 05:01N 05°19' W 000°17'815.6
2018-Apr-14 04:31N 05°23' W 000°10'815.5
2018-Apr-14 04:00N 05°28' W 000°03'715.1
2018-Apr-14 03:30N 05°32' E 000°03'5 9.4
2018-Apr-14 03:00N 05°37' E 000°03'3 5.7
2018-Apr-14 02:30N 05°38' E 000°01'0 0.3
2018-Apr-14 01:58N 05°38' E 000°01'0 0.0
2018-Apr-14 01:28N 05°38' E 000°01'0 0.0
2018-Apr-14 00:58N 05°38' E 000°01'0 0.0
2018-Apr-14 00:28N 05°38' E 000°01'0 0.0
2018-Apr-13 23:58N 05°38' E 000°01'0 0.0
2018-Apr-13 23:28N 05°38' E 000°01'  

Dump ship's entire track history